createdAt,value
2022-08-12T00:00:36.844Z,4.45
2022-08-12T00:03:41.215Z,4.78
2022-08-12T00:06:46.706Z,4.45
2022-08-12T00:09:51.044Z,4.90
2022-08-12T00:12:56.485Z,5.45
2022-08-12T00:16:04.578Z,5.55
2022-08-12T00:19:08.487Z,4.82
2022-08-12T00:22:12.569Z,5.47
2022-08-12T00:25:18.157Z,4.90
2022-08-12T00:28:22.583Z,5.05
2022-08-12T00:31:26.946Z,4.90
2022-08-12T00:34:35.001Z,5.05
2022-08-12T00:37:41.002Z,4.93
2022-08-12T00:40:46.842Z,4.65
2022-08-12T00:43:35.113Z,4.72
2022-08-12T00:46:33.394Z,4.97
2022-08-12T00:49:23.173Z,5.13
2022-08-12T00:52:12.353Z,5.35
2022-08-12T00:55:00.286Z,5.40
2022-08-12T00:57:48.558Z,5.38
2022-08-12T01:00:35.359Z,5.72
2022-08-12T01:03:21.604Z,5.40
2022-08-12T01:06:25.779Z,5.50
2022-08-12T01:09:33.231Z,5.35
2022-08-12T01:12:19.616Z,5.60
2022-08-12T01:15:06.169Z,5.97
2022-08-12T01:17:51.954Z,6.22
2022-08-12T01:20:49.662Z,6.07
2022-08-12T01:24:22.937Z,6.53
2022-08-12T01:27:15.470Z,5.93
2022-08-12T01:30:04.946Z,6.20
2022-08-12T01:32:51.339Z,6.18
2022-08-12T01:35:40.251Z,5.60
2022-08-12T01:38:29.733Z,6.07
2022-08-12T01:41:18.222Z,6.55
2022-08-12T01:44:04.277Z,7.82
2022-08-12T01:47:19.263Z,7.40
2022-08-12T01:50:36.850Z,6.95
2022-08-12T01:53:25.848Z,7.03
2022-08-12T01:56:12.217Z,6.57
2022-08-12T01:59:20.408Z,6.57
2022-08-12T02:02:11.270Z,7.40
2022-08-12T02:05:44.405Z,6.68
2022-08-12T02:09:04.069Z,6.38
2022-08-12T02:12:00.631Z,7.63
2022-08-12T02:15:03.125Z,7.68
2022-08-12T02:17:57.146Z,6.03
2022-08-12T02:20:53.817Z,6.80
2022-08-12T02:23:41.061Z,7.25
2022-08-12T02:26:30.800Z,6.40
2022-08-12T02:29:18.545Z,6.20
2022-08-12T02:32:04.620Z,6.13
2022-08-12T02:34:50.949Z,6.40
2022-08-12T02:37:39.218Z,6.35
2022-08-12T02:40:29.272Z,7.07
2022-08-12T02:43:41.536Z,6.65
2022-08-12T02:46:31.045Z,6.13
2022-08-12T02:49:23.479Z,6.30
2022-08-12T02:52:10.303Z,6.93
2022-08-12T02:55:03.616Z,7.55
2022-08-12T02:57:51.725Z,6.50
2022-08-12T03:00:39.028Z,6.20
2022-08-12T03:03:30.343Z,7.32
2022-08-12T03:06:22.130Z,6.65
2022-08-12T03:09:13.928Z,6.30
2022-08-12T03:12:09.579Z,5.68
2022-08-12T03:15:06.553Z,6.00
2022-08-12T03:18:27.204Z,6.65
2022-08-12T03:21:09.360Z,6.03
2022-08-12T03:23:55.571Z,6.95
2022-08-12T03:26:44.676Z,5.60
2022-08-12T03:29:33.253Z,5.80
2022-08-12T03:32:38.589Z,5.43
2022-08-12T03:35:40.038Z,5.93
2022-08-12T03:38:29.293Z,6.30
2022-08-12T03:41:40.697Z,5.72
2022-08-12T03:44:50.686Z,6.43
2022-08-12T03:48:08.787Z,5.88
2022-08-12T03:51:16.477Z,5.70
2022-08-12T03:54:20.986Z,4.88
2022-08-12T03:57:24.920Z,6.32
2022-08-12T04:00:23.942Z,6.32
2022-08-12T04:03:30.576Z,6.95
2022-08-12T04:06:16.219Z,5.50
2022-08-12T04:09:22.850Z,5.53
2022-08-12T04:12:27.605Z,5.78
2022-08-12T04:15:25.879Z,6.13
2022-08-12T04:21:02.596Z,6.72
2022-08-12T04:23:49.470Z,6.38
2022-08-12T04:26:36.040Z,5.90
2022-08-12T04:29:22.766Z,6.88
2022-08-12T04:32:28.562Z,6.60
2022-08-12T04:35:14.309Z,6.20
2022-08-12T04:38:00.995Z,7.10
2022-08-12T04:40:47.070Z,6.88
2022-08-12T04:43:53.724Z,6.63
2022-08-12T04:46:38.286Z,6.43
2022-08-12T04:49:25.256Z,6.65
2022-08-12T04:52:10.939Z,6.32
2022-08-12T04:54:56.742Z,6.75
2022-08-12T04:57:42.494Z,7.28
2022-08-12T05:00:27.728Z,6.78
2022-08-12T05:03:14.123Z,6.85
2022-08-12T05:05:59.821Z,7.07
2022-08-12T05:08:45.225Z,7.45
2022-08-12T05:11:30.786Z,7.43
2022-08-12T05:14:16.444Z,6.63
2022-08-12T05:17:01.805Z,6.70
2022-08-12T05:19:51.861Z,6.90
2022-08-12T05:22:41.561Z,6.75
2022-08-12T05:25:27.631Z,6.90
2022-08-12T05:28:14.092Z,6.30
2022-08-12T05:31:01.763Z,6.30
2022-08-12T05:33:47.697Z,6.55
2022-08-12T05:36:33.598Z,6.75
2022-08-12T05:39:19.451Z,6.55
2022-08-12T05:42:06.584Z,6.53
2022-08-12T05:44:52.188Z,6.18
2022-08-12T05:47:53.350Z,6.78
2022-08-12T05:50:41.311Z,6.32
2022-08-12T05:53:26.751Z,6.35
2022-08-12T05:56:25.736Z,6.35
2022-08-12T05:59:12.627Z,6.03
2022-08-12T06:02:09.667Z,6.25
2022-08-12T06:05:00.305Z,5.97
2022-08-12T06:08:01.955Z,5.75
2022-08-12T06:10:49.522Z,5.30
2022-08-12T06:13:54.046Z,5.18
2022-08-12T06:16:40.547Z,5.45
2022-08-12T06:19:25.804Z,5.25
2022-08-12T06:22:31.390Z,5.15
2022-08-12T06:25:22.151Z,5.13
2022-08-12T06:28:19.554Z,5.22
2022-08-12T06:35:25.781Z,4.82
2022-08-12T06:37:20.193Z,5.32
2022-08-12T06:40:07.369Z,5.45
2022-08-12T06:42:53.124Z,5.65
2022-08-12T06:45:46.286Z,6.03
2022-08-12T06:48:32.935Z,5.90
2022-08-12T06:51:20.754Z,6.18
2022-08-12T06:54:07.272Z,6.97
2022-08-12T06:57:04.196Z,5.68
2022-08-12T06:59:50.999Z,6.10
2022-08-12T07:02:37.296Z,6.15
2022-08-12T07:05:27.378Z,5.63
2022-08-12T07:08:13.994Z,5.32
2022-08-12T07:11:02.200Z,5.20
2022-08-12T07:14:12.727Z,5.90
2022-08-12T07:17:02.011Z,5.00
2022-08-12T07:19:48.877Z,5.55
2022-08-12T07:22:34.355Z,5.78
2022-08-12T07:25:41.197Z,6.13
2022-08-12T07:28:30.954Z,4.80
2022-08-12T07:31:17.466Z,5.25
2022-08-12T07:34:04.108Z,5.63
2022-08-12T07:36:50.386Z,4.93
2022-08-12T07:39:35.609Z,5.15
2022-08-12T07:42:21.124Z,5.30
2022-08-12T07:45:07.477Z,5.28
2022-08-12T07:47:52.704Z,5.32
2022-08-12T07:50:38.404Z,5.80
2022-08-12T07:53:23.700Z,4.82
2022-08-12T07:56:10.441Z,5.68
2022-08-12T07:58:58.984Z,5.13
2022-08-12T08:01:44.750Z,5.53
2022-08-12T08:04:48.598Z,5.43
2022-08-12T08:07:34.228Z,4.60
2022-08-12T08:10:20.938Z,5.63
2022-08-12T08:13:06.578Z,5.82
2022-08-12T08:16:04.090Z,5.30
2022-08-12T08:18:49.925Z,5.05
2022-08-12T08:21:35.571Z,4.88
2022-08-12T08:24:24.538Z,4.45
2022-08-12T08:27:10.991Z,5.45
2022-08-12T08:29:57.794Z,4.97
2022-08-12T08:32:42.914Z,4.13
2022-08-12T08:35:46.507Z,3.72
2022-08-12T08:38:35.363Z,5.18
2022-08-12T08:42:17.946Z,4.57
2022-08-12T08:44:58.041Z,4.20
2022-08-12T08:47:45.900Z,4.20
2022-08-12T08:50:32.007Z,3.95
2022-08-12T08:53:18.536Z,4.13
2022-08-12T08:56:05.340Z,3.97
2022-08-12T08:58:51.357Z,5.90
2022-08-12T09:01:38.644Z,4.53
2022-08-12T09:05:12.845Z,5.97
2022-08-12T09:07:51.070Z,5.28
2022-08-12T09:10:38.484Z,3.67
2022-08-12T09:14:11.290Z,3.97
2022-08-12T09:16:42.875Z,3.63
2022-08-12T09:19:29.361Z,4.05
2022-08-12T09:22:20.999Z,5.85
2022-08-12T09:25:07.283Z,4.30
2022-08-12T09:28:03.345Z,4.82
2022-08-12T09:30:52.065Z,4.00
2022-08-12T09:34:26.600Z,8.75
2022-08-12T09:36:58.317Z,3.35
2022-08-12T09:40:03.107Z,3.10
2022-08-12T09:43:16.094Z,3.13
2022-08-12T09:46:19.842Z,3.60
2022-08-12T09:49:16.514Z,3.30
2022-08-12T09:52:02.410Z,3.35
2022-08-12T09:54:48.311Z,3.30
2022-08-12T09:58:07.455Z,2.70
2022-08-12T10:00:52.013Z,2.88
2022-08-12T10:04:03.417Z,2.80
2022-08-12T10:06:54.885Z,2.90
2022-08-12T10:09:58.170Z,2.83
2022-08-12T10:13:06.949Z,3.13
2022-08-12T10:16:01.872Z,3.65
2022-08-12T10:18:59.928Z,3.13
2022-08-12T10:21:45.500Z,3.30
2022-08-12T10:24:31.374Z,3.13
2022-08-12T10:27:39.543Z,3.00
2022-08-12T10:30:43.991Z,3.40
2022-08-12T10:33:33.606Z,2.80
2022-08-12T10:36:39.963Z,2.83
2022-08-12T10:40:01.021Z,3.65
2022-08-12T10:43:00.660Z,2.72
2022-08-12T10:45:49.741Z,3.38
2022-08-12T10:48:35.423Z,3.20
2022-08-12T10:52:04.193Z,2.92
2022-08-12T10:54:29.120Z,2.70
2022-08-12T10:57:18.382Z,3.72
2022-08-12T11:00:30.877Z,2.92
2022-08-12T11:04:26.006Z,3.00
2022-08-12T11:07:05.912Z,3.22
2022-08-12T11:09:41.823Z,3.00
2022-08-12T11:12:58.713Z,2.60
2022-08-12T11:16:04.346Z,2.75
2022-08-12T11:18:55.408Z,3.33
2022-08-12T11:21:56.734Z,2.95
2022-08-12T11:24:51.761Z,2.65
2022-08-12T11:27:37.757Z,2.83
2022-08-12T11:30:31.156Z,3.00
2022-08-12T11:34:03.094Z,2.70
2022-08-12T11:36:23.651Z,3.10
2022-08-12T11:39:12.472Z,2.42
2022-08-12T11:41:58.140Z,2.50
2022-08-12T11:44:44.980Z,2.80
2022-08-12T11:47:30.320Z,2.70
2022-08-12T11:50:19.465Z,2.47
2022-08-12T11:53:05.526Z,3.28
2022-08-12T11:56:11.321Z,2.67
2022-08-12T12:02:05.454Z,2.13
2022-08-12T12:04:52.477Z,2.50
2022-08-12T12:08:41.063Z,2.55
2022-08-12T12:10:50.325Z,2.67
2022-08-12T12:14:07.301Z,2.70
2022-08-12T12:16:48.120Z,2.30
2022-08-12T12:19:40.007Z,2.63
2022-08-12T12:22:31.456Z,2.55
2022-08-12T12:25:19.802Z,2.35
2022-08-12T12:28:07.213Z,3.13
2022-08-12T12:30:54.645Z,2.40
2022-08-12T12:33:56.876Z,2.50
2022-08-12T12:36:46.047Z,2.42
2022-08-12T12:39:54.719Z,2.50
2022-08-12T12:42:45.660Z,2.20
2022-08-12T12:45:44.342Z,2.40
2022-08-12T12:48:32.226Z,2.55
2022-08-12T12:51:48.951Z,2.53
2022-08-12T12:54:28.914Z,2.50
2022-08-12T12:57:14.956Z,2.75
2022-08-12T13:00:15.177Z,2.28
2022-08-12T13:03:01.021Z,2.38
2022-08-12T13:05:53.651Z,2.97
2022-08-12T13:08:39.977Z,3.00
2022-08-12T13:11:32.769Z,2.85
2022-08-12T13:14:31.659Z,2.85
2022-08-12T13:17:21.452Z,2.17
2022-08-12T13:20:07.858Z,2.35
2022-08-12T13:22:53.428Z,2.33
2022-08-12T13:25:43.794Z,2.47
2022-08-12T13:28:31.632Z,2.55
2022-08-12T13:31:17.327Z,2.55
2022-08-12T13:34:32.947Z,2.40
2022-08-12T13:37:10.398Z,2.92
2022-08-12T13:39:57.617Z,2.40
2022-08-12T13:42:45.005Z,2.13
2022-08-12T13:45:31.743Z,3.03
2022-08-12T13:48:19.734Z,2.60
2022-08-12T13:51:05.706Z,2.20
2022-08-12T13:53:57.633Z,2.28
2022-08-12T13:56:49.937Z,2.53
2022-08-12T13:59:48.347Z,2.10
2022-08-12T14:02:40.889Z,2.30
2022-08-12T14:05:37.422Z,2.70
2022-08-12T14:08:24.169Z,2.22
2022-08-12T14:11:12.581Z,2.50
2022-08-12T14:14:04.741Z,2.67
2022-08-12T14:16:58.357Z,2.25
2022-08-12T14:20:06.103Z,3.15
2022-08-12T14:23:00.507Z,2.28
2022-08-12T14:26:11.744Z,2.67
2022-08-12T14:29:01.811Z,2.53
2022-08-12T14:31:47.982Z,2.88
2022-08-12T14:34:37.157Z,2.53
2022-08-12T14:37:55.899Z,2.70
2022-08-12T14:40:30.171Z,2.13
2022-08-12T14:43:15.792Z,2.45
2022-08-12T14:46:22.976Z,2.60
2022-08-12T14:50:00.979Z,2.13
2022-08-12T14:52:58.846Z,2.05
2022-08-12T14:58:27.802Z,2.30
2022-08-12T15:01:32.019Z,2.78
2022-08-12T15:04:22.544Z,2.35
2022-08-12T15:07:08.570Z,2.50
2022-08-12T15:10:14.127Z,2.13
2022-08-12T15:13:07.241Z,2.40
2022-08-12T15:15:54.451Z,2.20
2022-08-12T15:18:40.009Z,2.25
2022-08-12T15:22:39.555Z,2.10
2022-08-12T15:24:48.278Z,2.50
2022-08-12T15:28:03.766Z,1.92
2022-08-12T15:30:40.756Z,2.38
2022-08-12T15:33:44.841Z,2.30
2022-08-12T15:36:54.231Z,2.60
2022-08-12T15:39:37.754Z,2.38
2022-08-12T15:42:24.575Z,2.67
2022-08-12T15:45:10.334Z,2.60
2022-08-12T15:48:16.674Z,2.50
2022-08-12T15:51:06.431Z,2.45
2022-08-12T15:54:33.093Z,2.20
2022-08-12T15:57:16.805Z,2.72
2022-08-12T16:00:07.558Z,2.20
2022-08-12T16:06:16.835Z,2.65
2022-08-12T16:08:53.582Z,2.60
2022-08-12T16:11:41.218Z,2.95
2022-08-12T16:14:32.956Z,2.80
2022-08-12T16:17:20.804Z,3.10
2022-08-12T16:20:33.157Z,2.60
2022-08-12T16:23:36.404Z,2.60
2022-08-12T16:26:27.624Z,2.53
2022-08-12T16:29:19.378Z,2.80
2022-08-12T16:32:08.746Z,2.60
2022-08-12T16:34:57.730Z,2.70
2022-08-12T16:38:25.135Z,2.78
2022-08-12T16:40:52.479Z,2.58
2022-08-12T16:43:40.932Z,2.47
2022-08-12T16:46:33.444Z,2.92
2022-08-12T16:49:19.396Z,2.63
2022-08-12T16:52:12.575Z,2.70
2022-08-12T16:54:58.331Z,3.03
2022-08-12T16:57:48.443Z,2.20
2022-08-12T17:00:35.173Z,2.75
2022-08-12T17:03:28.571Z,3.15
2022-08-12T17:06:22.069Z,3.20
2022-08-12T17:09:17.184Z,3.22
2022-08-12T17:12:04.939Z,2.53
2022-08-12T17:14:53.060Z,2.80
2022-08-12T17:17:40.310Z,2.58
2022-08-12T17:20:35.082Z,3.50
2022-08-12T17:23:24.185Z,2.80
2022-08-12T17:26:11.063Z,2.97
2022-08-12T17:29:00.523Z,2.80
2022-08-12T17:31:59.672Z,2.65
2022-08-12T17:35:07.120Z,2.60
2022-08-12T17:38:05.859Z,2.20
2022-08-12T17:40:51.468Z,3.13
2022-08-12T17:43:56.441Z,2.50
2022-08-12T17:46:44.882Z,3.30
2022-08-12T17:50:02.583Z,2.85
2022-08-12T17:52:50.012Z,2.58
2022-08-12T17:55:43.982Z,2.45
2022-08-12T17:58:35.651Z,2.72
2022-08-12T18:01:24.317Z,2.70
2022-08-12T18:04:21.547Z,2.42
2022-08-12T18:07:11.026Z,3.25
2022-08-12T18:09:57.627Z,2.40
2022-08-12T18:12:51.136Z,2.45
2022-08-12T18:16:04.411Z,2.47
2022-08-12T18:18:48.996Z,2.72
2022-08-12T18:22:09.008Z,2.42
2022-08-12T18:25:03.627Z,2.97
2022-08-12T18:27:49.959Z,2.67
2022-08-12T18:30:59.628Z,2.42
2022-08-12T18:33:49.050Z,2.30
2022-08-12T18:36:35.260Z,2.60
2022-08-12T18:39:21.443Z,2.47
2022-08-12T18:42:09.723Z,2.47
2022-08-12T18:44:59.422Z,2.65
2022-08-12T18:47:50.134Z,2.60
2022-08-12T18:50:49.901Z,2.40
2022-08-12T18:54:07.403Z,2.60
2022-08-12T18:56:52.120Z,2.65
2022-08-12T18:59:59.712Z,2.45
2022-08-12T19:02:50.314Z,3.15
2022-08-12T19:05:53.521Z,2.75
2022-08-12T19:08:41.600Z,2.58
2022-08-12T19:14:40.278Z,3.05
2022-08-12T19:17:47.297Z,2.90
2022-08-12T19:20:35.875Z,3.22
2022-08-12T19:23:22.354Z,2.83
2022-08-12T19:26:10.833Z,2.60
2022-08-12T19:28:59.287Z,2.63
2022-08-12T19:31:57.276Z,2.60
2022-08-12T19:36:06.612Z,2.60
2022-08-12T19:38:06.379Z,2.45
2022-08-12T19:40:55.009Z,2.65
2022-08-12T19:44:00.503Z,2.60
2022-08-12T19:46:52.805Z,2.58
2022-08-12T19:49:49.357Z,2.45
2022-08-12T19:52:34.828Z,2.83
2022-08-12T19:55:22.226Z,2.85
2022-08-12T19:58:18.137Z,2.70
2022-08-12T20:01:11.030Z,3.42
2022-08-12T20:03:59.341Z,2.58
2022-08-12T20:06:51.568Z,3.38
2022-08-12T20:09:41.039Z,2.80
2022-08-12T20:12:44.698Z,2.80
2022-08-12T20:15:43.248Z,2.92
2022-08-12T20:18:53.172Z,3.35
2022-08-12T20:21:40.167Z,3.13
2022-08-12T20:24:31.215Z,2.80
2022-08-12T20:27:29.541Z,2.80
2022-08-12T20:30:37.885Z,3.40
2022-08-12T20:33:32.318Z,2.92
2022-08-12T20:36:41.135Z,3.08
2022-08-12T20:39:52.767Z,3.22
2022-08-12T20:42:34.683Z,2.90
2022-08-12T20:45:22.188Z,3.05
2022-08-12T20:48:11.462Z,3.33
2022-08-12T20:51:04.166Z,3.33
2022-08-12T20:53:57.480Z,4.05
2022-08-12T20:56:45.372Z,3.60
2022-08-12T20:59:31.880Z,3.45
2022-08-12T21:02:24.463Z,3.42
2022-08-12T21:06:09.416Z,4.03
2022-08-12T21:08:39.897Z,4.15
2022-08-12T21:11:25.489Z,4.63
2022-08-12T21:14:11.017Z,3.67
2022-08-12T21:17:04.796Z,3.80
2022-08-12T21:19:52.818Z,4.38
2022-08-12T21:22:40.150Z,3.90
2022-08-12T21:25:36.357Z,4.22
2022-08-12T21:28:31.644Z,4.45
2022-08-12T21:32:35.965Z,3.70
2022-08-12T21:34:29.154Z,4.47
2022-08-12T21:37:27.686Z,4.95
2022-08-12T21:40:15.024Z,4.40
2022-08-12T21:43:00.631Z,4.60
2022-08-12T21:46:00.774Z,4.85
2022-08-12T21:48:48.520Z,4.45
2022-08-12T21:51:49.594Z,4.32
2022-08-12T21:54:42.557Z,4.32
2022-08-12T21:57:36.189Z,4.55
2022-08-12T22:00:34.531Z,4.50
2022-08-12T22:04:02.693Z,4.55
2022-08-12T22:06:46.563Z,5.53
2022-08-12T22:09:42.596Z,5.05
2022-08-12T22:12:39.508Z,5.60
2022-08-12T22:15:26.365Z,4.97
2022-08-12T22:18:12.960Z,5.60
2022-08-12T22:21:01.360Z,5.80
2022-08-12T22:23:51.490Z,5.30
2022-08-12T22:26:49.357Z,5.70
2022-08-12T22:29:54.307Z,5.55
2022-08-12T22:32:49.972Z,6.35
2022-08-12T22:35:55.569Z,5.90
2022-08-12T22:38:47.238Z,5.88
2022-08-12T22:41:56.778Z,6.95
2022-08-12T22:45:02.001Z,6.32
2022-08-12T22:47:55.225Z,5.22
2022-08-12T22:50:41.837Z,5.78
2022-08-12T22:53:36.152Z,6.57
2022-08-12T22:56:30.910Z,6.20
2022-08-12T22:59:17.312Z,6.18
2022-08-12T23:02:07.761Z,5.97
2022-08-12T23:04:58.146Z,5.55
2022-08-12T23:07:59.084Z,6.07
2022-08-12T23:10:46.988Z,5.50
2022-08-12T23:13:55.077Z,5.70
2022-08-12T23:16:42.572Z,5.80
2022-08-12T23:19:38.065Z,5.38
2022-08-12T23:22:36.004Z,5.85
2022-08-12T23:25:22.971Z,6.65
2022-08-12T23:28:37.153Z,5.47
2022-08-12T23:32:02.278Z,6.63
2022-08-12T23:34:34.403Z,5.93
2022-08-12T23:37:46.693Z,6.43
2022-08-12T23:40:29.693Z,5.80
2022-08-12T23:43:17.690Z,5.95
2022-08-12T23:46:06.075Z,6.70
2022-08-12T23:48:53.899Z,6.25
2022-08-12T23:51:39.401Z,6.00
2022-08-12T23:54:38.750Z,5.57
2022-08-12T23:57:26.599Z,6.20
